Time;durP1;ratioP1;P1;durP2;ratioP2;P2;SDS_P1;SDS_P2;PMS_P1;PMS_P2;Temp;Humidity;BMP_temperature;BMP_pressure;BME280_temperature;BME280_humidity;BME280_pressure;Samples;Min_cycle;Max_cycle;Signal;HPM_P1;HPM_P2
2021/09/25 00:00:21;;;;;;;1.90;0.90;;;;;;;9.72;87.52;98573.51;1709724;82;20997;-75
2021/09/25 00:02:45;;;;;;;4.55;1.30;;;;;;;9.72;87.50;98568.59;1710373;82;20993;-73
2021/09/25 00:05:14;;;;;;;5.33;1.55;;;;;;;9.72;87.66;98569.38;1705655;82;21497;-74
2021/09/25 00:07:41;;;;;;;5.17;1.02;;;;;;;9.76;87.72;98576.39;1715863;82;20983;-74
2021/09/25 00:10:08;;;;;;;1.67;0.93;;;;;;;9.77;87.62;98575.27;1713847;82;22169;-74
2021/09/25 00:12:34;;;;;;;7.15;1.02;;;;;;;9.76;87.46;98575.61;1691336;82;21303;-72
2021/09/25 00:15:00;;;;;;;4.20;1.20;;;;;;;9.76;87.41;98578.36;1716357;82;21009;-73
2021/09/25 00:17:26;;;;;;;3.52;1.50;;;;;;;9.74;87.49;98584.20;1716857;82;21490;-72
2021/09/25 00:19:55;;;;;;;6.97;1.77;;;;;;;9.73;87.52;98579.26;1718620;82;21025;-74
2021/09/25 00:22:27;;;;;;;6.08;1.35;;;;;;;9.74;87.49;98580.86;1720090;82;21001;-74
2021/09/25 00:24:55;;;;;;;2.75;1.20;;;;;;;9.77;87.54;98578.58;1711733;82;21455;-73
2021/09/25 00:27:24;;;;;;;1.70;1.02;;;;;;;9.76;87.38;98584.64;1733224;81;21080;-75
2021/09/25 00:29:52;;;;;;;3.55;1.47;;;;;;;9.77;87.38;98579.39;1734685;81;20970;-75
2021/09/25 00:32:22;;;;;;;5.17;1.20;;;;;;;9.77;87.14;98573.89;1726328;81;21012;-77
2021/09/25 00:34:50;;;;;;;3.08;0.98;;;;;;;9.77;87.10;98585.45;1696191;81;21086;-73
2021/09/25 00:37:16;;;;;;;4.33;1.10;;;;;;;9.78;87.03;98585.12;1735907;81;21060;-75
2021/09/25 00:39:43;;;;;;;2.72;1.02;;;;;;;9.77;87.04;98593.71;1704838;81;20992;-77
2021/09/25 00:42:12;;;;;;;7.80;1.37;;;;;;;9.78;87.00;98593.93;1728576;81;21128;-76
2021/09/25 00:44:38;;;;;;;6.12;1.45;;;;;;;9.76;86.84;98591.52;1731238;81;21572;-78
2021/09/25 00:47:04;;;;;;;5.85;1.17;;;;;;;9.76;86.77;98595.65;1732902;81;21511;-74
2021/09/25 00:49:33;;;;;;;1.65;0.80;;;;;;;9.73;86.69;98599.89;1699217;81;21068;-73
2021/09/25 00:51:59;;;;;;;7.75;1.67;;;;;;;9.73;86.67;98604.02;1729479;81;21055;-77
2021/09/25 00:54:34;;;;;;;3.80;0.88;;;;;;;9.71;86.55;98599.42;1690205;84;21098;-72
2021/09/25 00:57:01;;;;;;;6.80;0.80;;;;;;;9.71;86.67;98600.80;1696956;84;21000;-76
2021/09/25 00:59:30;;;;;;;5.05;0.80;;;;;;;9.71;86.53;98606.30;1737116;81;21519;-74
2021/09/25 01:02:17;;;;;;;4.50;0.88;;;;;;;9.69;86.50;98604.45;1725325;81;21103;-76
2021/09/25 01:04:40;;;;;;;3.90;0.90;;;;;;;9.70;86.52;98619.83;1693035;81;21027;-75
2021/09/25 01:07:07;;;;;;;1.22;0.80;;;;;;;9.70;86.54;98617.08;1737714;81;21045;-76
2021/09/25 01:09:34;;;;;;;6.60;0.95;;;;;;;9.72;86.50;98622.23;1732499;81;21568;-74
2021/09/25 01:12:06;;;;;;;1.60;0.90;;;;;;;9.72;86.56;98623.61;1735467;81;21244;-78
2021/09/25 01:14:32;;;;;;;7.90;1.47;;;;;;;9.73;86.43;98627.96;1733529;81;21550;-71
2021/09/25 01:17:07;;;;;;;4.12;1.10;;;;;;;9.74;86.36;98630.97;1727977;81;21013;-75
2021/09/25 01:19:35;;;;;;;3.98;0.90;;;;;;;9.75;86.41;98635.31;1732547;81;21087;-75
2021/09/25 01:22:01;;;;;;;2.20;1.02;;;;;;;9.78;86.35;98636.58;1731740;81;21529;-73
2021/09/25 01:24:28;;;;;;;4.75;1.35;;;;;;;9.78;86.31;98631.07;1730814;81;21516;-72
2021/09/25 01:26:56;;;;;;;3.12;0.70;;;;;;;9.78;86.22;98627.77;1729378;81;21048;-74
2021/09/25 01:29:24;;;;;;;4.05;1.05;;;;;;;9.79;86.08;98621.70;1714992;82;21080;-73
2021/09/25 01:31:58;;;;;;;2.65;0.85;;;;;;;9.82;86.20;98625.95;1723127;82;21044;-75
2021/09/25 01:34:25;;;;;;;2.10;0.85;;;;;;;9.87;86.16;98631.82;1715643;82;21018;-73
2021/09/25 01:36:51;;;;;;;1.72;1.00;;;;;;;9.89;86.02;98626.79;1714849;82;21894;-75
2021/09/25 01:39:19;;;;;;;4.00;1.12;;;;;;;9.91;85.89;98630.58;1712911;82;21071;-73
2021/09/25 01:41:52;;;;;;;1.42;0.90;;;;;;;9.91;85.86;98631.36;1714994;82;21062;-74
2021/09/25 01:44:26;;;;;;;1.87;0.80;;;;;;;9.91;85.80;98632.73;1692037;82;21489;-75
2021/09/25 01:46:59;;;;;;;5.17;0.95;;;;;;;9.92;85.77;98637.67;1691763;84;21612;-74
2021/09/25 01:49:26;;;;;;;6.33;1.00;;;;;;;9.91;85.58;98635.48;1712108;82;21777;-76
2021/09/25 01:51:52;;;;;;;4.20;0.60;;;;;;;9.89;85.62;98636.98;1694193;82;21030;-73
2021/09/25 01:54:19;;;;;;;2.70;0.88;;;;;;;9.89;85.58;98640.55;1709626;82;21032;-73
2021/09/25 01:56:46;;;;;;;3.30;0.88;;;;;;;9.89;85.64;98650.18;1719143;82;21049;-73
2021/09/25 01:59:14;;;;;;;4.00;0.98;;;;;;;9.90;85.63;98656.47;1720505;82;21589;-78
2021/09/25 02:01:40;;;;;;;3.85;1.30;;;;;;;9.89;85.55;98656.24;1707985;82;21830;-72
2021/09/25 02:04:07;;;;;;;2.60;0.80;;;;;;;9.88;85.55;98658.18;1719592;82;21042;-72
2021/09/25 02:06:33;;;;;;;1.57;1.00;;;;;;;9.85;85.51;98659.67;1695929;82;21177;-79
2021/09/25 02:09:06;;;;;;;4.83;1.02;;;;;;;9.87;85.71;98671.72;1718686;82;21021;-72
2021/09/25 02:11:37;;;;;;;3.40;1.25;;;;;;;9.86;85.49;98680.53;1710290;82;21061;-73
2021/09/25 02:14:04;;;;;;;3.02;0.80;;;;;;;9.85;85.38;98687.75;1720992;82;21494;-78
2021/09/25 02:16:30;;;;;;;4.00;1.30;;;;;;;9.83;85.43;98692.77;1721659;82;21103;-77
2021/09/25 02:18:57;;;;;;;2.62;0.93;;;;;;;9.80;85.45;98693.45;1716835;82;21554;-77
2021/09/25 02:21:23;;;;;;;1.82;0.90;;;;;;;9.80;85.64;98692.07;1716502;82;20969;-73
2021/09/25 02:23:50;;;;;;;3.15;0.93;;;;;;;9.81;85.65;98694.48;1717989;82;21563;-71
2021/09/25 02:26:18;;;;;;;1.80;0.95;;;;;;;9.81;85.56;98697.83;1713570;82;22268;-72
2021/09/25 02:28:46;;;;;;;1.15;0.70;;;;;;;9.80;85.62;98709.39;1691583;82;21060;-75
2021/09/25 02:31:12;;;;;;;3.50;0.93;;;;;;;9.78;85.52;98717.17;1717234;82;21021;-77
2021/09/25 02:33:43;;;;;;;3.95;1.02;;;;;;;9.76;85.71;98719.44;1708545;82;21025;-75
2021/09/25 02:36:10;;;;;;;5.05;0.90;;;;;;;9.76;85.57;98728.29;1717969;82;21505;-75
2021/09/25 02:38:37;;;;;;;4.47;0.70;;;;;;;9.72;85.69;98726.18;1723865;82;21521;-71
2021/09/25 02:41:06;;;;;;;1.77;1.12;;;;;;;9.70;85.93;98732.61;1714616;82;21056;-71
2021/09/25 02:43:42;;;;;;;2.98;0.70;;;;;;;9.69;85.84;98727.44;1711901;82;21101;-76
2021/09/25 02:46:10;;;;;;;2.17;0.70;;;;;;;9.70;85.89;98737.30;1689271;83;21082;-73
2021/09/25 02:48:39;;;;;;;1.90;0.95;;;;;;;9.70;86.08;98740.86;1707323;82;21049;-78
2021/09/25 02:51:05;;;;;;;2.47;1.00;;;;;;;9.70;86.15;98740.86;1716495;82;21906;-73
2021/09/25 02:53:33;;;;;;;2.92;1.20;;;;;;;9.72;86.05;98747.41;1716711;82;21024;-76
2021/09/25 02:56:00;;;;;;;3.35;0.88;;;;;;;9.73;85.98;98753.13;1715257;82;21033;-74
2021/09/25 02:58:26;;;;;;;3.60;1.05;;;;;;;9.73;85.88;98754.50;1693334;82;21032;-73
2021/09/25 03:00:54;;;;;;;8.83;1.05;;;;;;;9.70;85.79;98761.49;1714913;82;21055;-75
2021/09/25 03:03:21;;;;;;;5.35;1.25;;;;;;;9.68;85.82;98757.45;1694086;82;21449;-74
2021/09/25 03:05:47;;;;;;;4.92;1.25;;;;;;;9.68;86.03;98757.45;1683583;82;21036;-72
2021/09/25 03:08:15;;;;;;;3.77;1.02;;;;;;;9.67;86.04;98762.72;1715405;82;21084;-72
2021/09/25 03:10:42;;;;;;;12.37;1.42;;;;;;;9.65;86.19;98767.19;1716551;82;21052;-75
2021/09/25 03:13:10;;;;;;;7.30;1.65;;;;;;;9.65;86.17;98767.74;1718486;82;21024;-72
2021/09/25 03:15:36;;;;;;;1.90;0.93;;;;;;;9.65;86.10;98775.99;1715335;82;21596;-75
2021/09/25 03:18:04;;;;;;;5.33;1.20;;;;;;;9.64;86.19;98787.55;1718409;82;21049;-75
2021/09/25 03:20:30;;;;;;;8.03;1.60;;;;;;;9.64;86.31;98787.55;1719596;82;20993;-73
2021/09/25 03:22:57;;;;;;;4.12;1.10;;;;;;;9.65;86.14;98784.25;1724095;82;21294;-77
2021/09/25 03:25:24;;;;;;;4.72;1.50;;;;;;;9.64;86.18;98789.52;1715209;82;21032;-76
2021/09/25 03:27:54;;;;;;;4.80;1.30;;;;;;;9.64;86.12;98789.52;1655560;83;21470;-78
2021/09/25 03:30:20;;;;;;;3.15;0.90;;;;;;;9.65;86.25;98798.00;1658461;85;21084;-76
2021/09/25 03:32:47;;;;;;;2.22;0.80;;;;;;;9.64;86.12;98801.31;1660079;85;21096;-77
2021/09/25 03:35:13;;;;;;;5.65;0.95;;;;;;;9.64;86.22;98802.69;1581552;88;21608;-72
2021/09/25 03:37:39;;;;;;;7.12;1.17;;;;;;;9.64;86.09;98814.28;1649158;85;21080;-72
2021/09/25 03:40:09;;;;;;;2.98;1.12;;;;;;;9.62;86.15;98819.52;1659840;85;21462;-75
2021/09/25 03:42:36;;;;;;;5.75;1.10;;;;;;;9.60;86.12;98825.92;1581150;88;21015;-72
2021/09/25 03:45:06;;;;;;;5.33;1.12;;;;;;;9.61;86.13;98827.55;1598544;88;21052;-75
2021/09/25 03:47:43;;;;;;;6.72;1.98;;;;;;;9.64;86.19;98833.53;1661228;85;21560;-79
2021/09/25 03:50:14;;;;;;;2.65;1.10;;;;;;;9.65;86.11;98835.13;1656810;85;21116;-76
2021/09/25 03:52:40;;;;;;;7.90;1.32;;;;;;;9.66;86.18;98839.48;1661168;85;21538;-78
2021/09/25 03:55:07;;;;;;;7.20;1.05;;;;;;;9.69;86.11;98842.97;1660474;85;21128;-72
2021/09/25 03:57:34;;;;;;;1.55;0.90;;;;;;;9.69;86.09;98846.52;1659088;85;21647;-76
2021/09/25 04:00:04;;;;;;;3.17;1.02;;;;;;;9.70;86.13;98847.33;1661042;84;21080;-77
2021/09/25 04:02:42;;;;;;;8.90;1.57;;;;;;;9.69;86.11;98841.60;1594507;88;21567;-73
2021/09/25 04:05:10;;;;;;;3.58;1.12;;;;;;;9.71;86.04;98843.43;1661747;85;21767;-77
2021/09/25 04:07:36;;;;;;;2.65;0.88;;;;;;;9.72;85.91;98851.34;1643403;85;21052;-71
2021/09/25 04:10:06;;;;;;;2.60;1.30;;;;;;;9.72;85.76;98861.56;1659404;85;21100;-79
2021/09/25 04:12:33;;;;;;;1.62;0.75;;;;;;;9.71;85.79;98865.44;1658947;85;21096;-76
2021/09/25 04:15:03;;;;;;;9.25;1.27;;;;;;;9.70;85.85;98864.65;1662408;85;21043;-79
2021/09/25 04:17:32;;;;;;;14.40;1.47;;;;;;;9.73;85.88;98875.55;1659458;85;21528;-77
2021/09/25 04:19:59;;;;;;;3.02;1.15;;;;;;;9.72;85.56;98876.70;1662680;85;21607;-76
2021/09/25 04:22:29;;;;;;;4.35;1.60;;;;;;;9.72;85.73;98875.32;1662661;85;21084;-74
2021/09/25 04:25:00;;;;;;;6.17;1.35;;;;;;;9.72;85.70;98875.32;1655649;85;21108;-74
2021/09/25 04:27:29;;;;;;;5.95;1.17;;;;;;;9.71;85.75;98875.88;1678817;82;21029;-75
2021/09/25 04:30:01;;;;;;;8.70;1.82;;;;;;;9.73;85.81;98875.55;1710087;82;21026;-75
2021/09/25 04:32:28;;;;;;;10.00;1.77;;;;;;;9.75;85.79;98873.28;1722007;82;21100;-78
2021/09/25 04:35:00;;;;;;;14.60;1.32;;;;;;;9.76;85.75;98881.77;1715989;82;21017;-75
2021/09/25 04:37:30;;;;;;;4.62;1.17;;;;;;;9.78;85.62;98884.17;1711713;82;20984;-73
2021/09/25 04:39:57;;;;;;;2.37;0.95;;;;;;;9.78;85.55;98886.38;1721993;82;21008;-75
2021/09/25 04:42:25;;;;;;;1.42;0.90;;;;;;;9.80;85.57;98894.30;1713025;82;21517;-77
2021/09/25 04:45:00;;;;;;;7.25;1.17;;;;;;;9.83;85.59;98893.63;1693144;82;21064;-74
2021/09/25 04:47:26;;;;;;;4.65;1.47;;;;;;;9.86;85.54;98895.71;1707688;82;21057;-74
2021/09/25 04:49:57;;;;;;;1.95;1.17;;;;;;;9.88;85.40;98896.20;1707724;82;21024;-77
2021/09/25 04:52:24;;;;;;;5.22;1.20;;;;;;;9.89;85.22;98904.70;1680134;83;21026;-71
2021/09/25 04:54:50;;;;;;;13.93;1.80;;;;;;;9.91;85.40;98902.41;1689861;82;21060;-78
2021/09/25 04:57:16;;;;;;;3.25;1.17;;;;;;;9.92;85.22;98916.42;1718325;82;21033;-73
2021/09/25 04:59:43;;;;;;;6.50;1.40;;;;;;;9.95;85.34;98919.89;1691123;82;21545;-74
2021/09/25 05:02:11;;;;;;;5.92;1.82;;;;;;;9.95;85.06;98919.89;1714956;82;21029;-72
2021/09/25 05:04:43;;;;;;;8.05;2.30;;;;;;;9.97;85.02;98927.25;1697165;82;21523;-74
2021/09/25 05:07:11;;;;;;;6.62;2.15;;;;;;;10.00;85.14;98932.65;1712009;82;21557;-73
2021/09/25 05:09:41;;;;;;;3.15;1.20;;;;;;;10.07;85.17;98950.02;1706926;82;21053;-74
2021/09/25 05:12:08;;;;;;;3.37;1.67;;;;;;;10.10;84.84;98956.23;1715620;82;21279;-72
2021/09/25 05:14:38;;;;;;;3.65;1.87;;;;;;;10.12;84.62;98964.19;1715351;82;21036;-72
2021/09/25 05:17:10;;;;;;;4.55;1.87;;;;;;;10.12;84.49;98969.70;1706958;82;21070;-75
2021/09/25 05:19:37;;;;;;;3.12;1.50;;;;;;;10.10;84.18;98978.26;1714453;82;21125;-72
2021/09/25 05:22:04;;;;;;;2.87;1.30;;;;;;;10.07;84.02;98976.98;1719341;82;21010;-73
2021/09/25 05:24:34;;;;;;;3.80;1.55;;;;;;;10.07;83.86;98984.43;1720009;82;21029;-73
2021/09/25 05:27:13;;;;;;;4.42;1.20;;;;;;;10.07;83.81;98974.23;1703641;82;21687;-74
2021/09/25 05:29:39;;;;;;;1.92;1.10;;;;;;;10.05;83.40;98983.39;1688831;82;21037;-72
2021/09/25 05:32:07;;;;;;;2.47;0.93;;;;;;;9.99;83.34;98988.84;1709536;81;21049;-76
2021/09/25 05:34:36;;;;;;;3.98;0.90;;;;;;;9.95;83.31;98994.75;1709060;82;21044;-72
2021/09/25 05:37:04;;;;;;;4.78;1.25;;;;;;;9.93;83.01;98996.45;1703705;82;20966;-72
2021/09/25 05:39:38;;;;;;;4.35;1.62;;;;;;;9.89;83.24;98999.64;1690874;82;20993;-72
2021/09/25 05:42:05;;;;;;;3.02;1.15;;;;;;;9.90;83.18;99003.19;1717530;82;20990;-71
2021/09/25 05:44:31;;;;;;;2.60;1.35;;;;;;;9.89;83.00;99009.28;1717784;82;21037;-75
2021/09/25 05:47:02;;;;;;;2.60;1.02;;;;;;;9.92;83.22;99011.92;1703819;82;20971;-73
2021/09/25 05:49:29;;;;;;;2.87;1.22;;;;;;;9.94;83.03;99011.03;1707259;84;21030;-74
2021/09/25 05:52:01;;;;;;;5.95;1.20;;;;;;;9.95;82.86;99012.08;1685617;84;21573;-75
2021/09/25 05:54:30;;;;;;;5.10;1.90;;;;;;;9.92;82.82;99023.75;1700444;83;21017;-72
2021/09/25 05:56:59;;;;;;;7.15;1.60;;;;;;;9.92;82.87;99025.13;1686812;82;21537;-72
2021/09/25 05:59:29;;;;;;;5.78;1.10;;;;;;;9.93;82.85;99022.60;1711240;82;21047;-74
2021/09/25 06:01:56;;;;;;;4.95;1.65;;;;;;;9.93;82.89;99022.60;1706589;82;21075;-78
2021/09/25 06:04:25;;;;;;;3.92;1.40;;;;;;;9.99;82.96;99038.38;1651397;84;21021;-76
2021/09/25 06:06:52;;;;;;;6.25;1.87;;;;;;;10.00;82.78;99035.07;1704717;82;20995;-77
2021/09/25 06:09:19;;;;;;;3.00;1.40;;;;;;;9.99;82.46;99045.27;1689916;82;21625;-74
2021/09/25 06:11:45;;;;;;;5.97;1.30;;;;;;;9.98;82.38;99046.38;1711567;82;21003;-72
2021/09/25 06:14:13;;;;;;;10.90;1.20;;;;;;;9.98;82.36;99054.64;1707360;82;20975;-73
2021/09/25 06:16:41;;;;;;;2.33;1.12;;;;;;;9.96;82.24;99056.34;1708641;82;21564;-76
2021/09/25 06:19:07;;;;;;;22.45;1.95;;;;;;;9.98;82.50;99058.77;1679153;85;21064;-73
2021/09/25 06:21:34;;;;;;;2.67;1.10;;;;;;;10.01;82.39;99057.31;1678713;85;21624;-76
2021/09/25 06:24:06;;;;;;;5.60;1.80;;;;;;;10.02;82.36;99060.30;1719120;82;21033;-75
2021/09/25 06:26:36;;;;;;;2.08;1.10;;;;;;;10.03;82.10;99062.72;1719480;82;21076;-74
2021/09/25 06:29:04;;;;;;;4.90;1.27;;;;;;;10.03;82.07;99059.19;1703478;82;21013;-75
2021/09/25 06:31:32;;;;;;;3.52;1.00;;;;;;;10.04;82.40;99056.66;1680210;85;21538;-72
2021/09/25 06:33:58;;;;;;;5.15;0.80;;;;;;;10.09;82.51;99061.99;1677256;85;21478;-74
2021/09/25 06:36:27;;;;;;;3.27;1.00;;;;;;;10.13;82.64;99063.52;1676643;85;21071;-72
2021/09/25 06:38:53;;;;;;;7.00;1.50;;;;;;;10.17;82.50;99064.47;1676942;85;20978;-78
2021/09/25 06:41:19;;;;;;;1.92;1.05;;;;;;;10.22;82.45;99061.53;1685313;82;21099;-74
2021/09/25 06:43:48;;;;;;;3.72;1.42;;;;;;;10.27;82.23;99064.70;1679087;82;21031;-77
2021/09/25 06:46:16;;;;;;;6.70;1.65;;;;;;;10.34;82.38;99069.93;1705814;82;21084;-73
2021/09/25 06:48:43;;;;;;;5.65;1.50;;;;;;;10.43;82.64;99075.41;1703849;84;21029;-72
2021/09/25 06:51:10;;;;;;;4.17;1.30;;;;;;;10.50;82.09;99081.00;1707272;82;21024;-78
2021/09/25 06:53:36;;;;;;;2.98;1.30;;;;;;;10.56;81.81;99088.74;1706011;82;21522;-77
2021/09/25 06:56:05;;;;;;;7.22;1.20;;;;;;;10.66;81.94;99097.20;1705405;84;21070;-77
2021/09/25 06:58:35;;;;;;;2.67;1.10;;;;;;;10.78;82.00;99095.72;1705592;84;21842;-79
2021/09/25 07:01:02;;;;;;;2.45;1.07;;;;;;;10.89;81.64;99101.08;1703198;82;21077;-79
2021/09/25 07:03:31;;;;;;;2.80;1.30;;;;;;;11.00;81.30;99107.59;1734604;82;21521;-73
2021/09/25 07:06:02;;;;;;;5.28;1.40;;;;;;;11.10;81.16;99114.67;1734477;82;21009;-77
2021/09/25 07:08:35;;;;;;;4.28;1.87;;;;;;;11.18;80.73;99111.05;1734373;82;20982;-74
2021/09/25 07:11:08;;;;;;;9.23;2.37;;;;;;;11.24;80.55;99111.67;1734492;82;21522;-74
2021/09/25 07:13:41;;;;;;;9.60;2.20;;;;;;;11.28;80.22;99111.22;1722686;82;21072;-76
2021/09/25 07:16:12;;;;;;;8.38;1.67;;;;;;;11.31;80.16;99108.60;1689829;82;21078;-77
2021/09/25 07:18:39;;;;;;;4.35;1.87;;;;;;;11.35;79.94;99115.64;1651566;85;21640;-74
2021/09/25 07:21:09;;;;;;;6.83;1.82;;;;;;;11.37;79.76;99114.73;1674742;84;21299;-78
2021/09/25 07:23:37;;;;;;;7.35;3.15;;;;;;;11.37;79.42;99110.60;1700471;82;21575;-78
2021/09/25 07:26:06;;;;;;;4.17;2.00;;;;;;;11.38;79.19;99112.80;1715257;82;20999;-74
2021/09/25 07:28:33;;;;;;;5.90;1.98;;;;;;;11.36;78.88;99112.32;1685724;83;20992;-78
2021/09/25 07:31:01;;;;;;;10.75;1.95;;;;;;;11.38;79.36;99117.72;1715605;82;21191;-75
2021/09/25 07:33:29;;;;;;;4.45;2.05;;;;;;;11.44;79.06;99117.78;1717370;82;21067;-77
2021/09/25 07:35:56;;;;;;;7.55;2.12;;;;;;;11.49;78.87;99115.38;1726941;82;21138;-73
2021/09/25 07:38:22;;;;;;;7.65;2.35;;;;;;;11.58;79.04;99116.70;1713446;82;20993;-73
2021/09/25 07:40:59;;;;;;;7.30;2.77;;;;;;;11.69;79.13;99126.18;1707253;83;21032;-75
2021/09/25 07:43:25;;;;;;;5.08;1.60;;;;;;;11.80;78.95;99113.35;1676226;83;21036;-73
2021/09/25 07:45:52;;;;;;;5.83;1.62;;;;;;;11.91;78.92;99120.06;1722420;82;21060;-77
2021/09/25 07:48:20;;;;;;;3.40;1.82;;;;;;;12.01;78.58;99119.42;1725795;82;22242;-73
2021/09/25 07:50:52;;;;;;;9.63;2.00;;;;;;;12.08;78.09;99126.56;1711799;83;21014;-73
2021/09/25 07:53:19;;;;;;;13.08;2.77;;;;;;;12.10;77.09;99128.44;1712859;83;21025;-75
2021/09/25 07:55:45;;;;;;;9.50;2.17;;;;;;;12.07;77.31;99137.38;1726086;82;21103;-71
2021/09/25 07:58:12;;;;;;;3.15;1.40;;;;;;;12.07;76.92;99136.00;1723729;82;21551;-74
2021/09/25 08:00:39;;;;;;;11.33;2.37;;;;;;;12.04;76.40;99136.69;1700449;82;21524;-73
2021/09/25 08:03:05;;;;;;;8.33;1.70;;;;;;;12.02;76.61;99134.27;1677878;84;21036;-77
2021/09/25 08:05:31;;;;;;;9.23;1.50;;;;;;;12.05;76.44;99134.96;1718698;82;21009;-72
2021/09/25 08:07:58;;;;;;;9.23;2.22;;;;;;;12.08;76.61;99138.98;1693997;82;21097;-72
2021/09/25 08:10:24;;;;;;;9.55;2.35;;;;;;;12.14;76.78;99129.39;1727185;82;21038;-73
2021/09/25 08:12:53;;;;;;;10.15;1.92;;;;;;;12.24;76.97;99140.58;1716916;82;21811;-77
2021/09/25 08:15:21;;;;;;;10.18;2.62;;;;;;;12.33;76.88;99144.64;1676848;83;21509;-76
2021/09/25 08:17:48;;;;;;;5.85;1.80;;;;;;;12.39;76.55;99148.78;1714755;82;21517;-78
2021/09/25 08:20:15;;;;;;;4.67;2.10;;;;;;;12.44;76.56;99150.52;1694310;82;21065;-73
2021/09/25 08:23:02;;;;;;;4.05;1.57;;;;;;;12.48;76.08;99153.41;1727008;82;21088;-78
2021/09/25 08:25:35;;;;;;;;;;;;;;;12.50;75.27;99158.02;1689734;83;21298;-74
2021/09/25 08:28:08;;;;;;;5.22;2.10;;;;;;;12.49;75.20;99160.53;1647691;84;20202;-75
2021/09/25 08:30:53;;;;;;;3.47;1.77;;;;;;;12.49;75.57;99160.53;1622117;84;21131;-75
2021/09/25 08:33:24;;;;;;;11.90;1.98;;;;;;;12.54;75.47;99163.08;1663459;84;21095;-75
2021/09/25 08:35:51;;;;;;;6.90;1.90;;;;;;;12.62;75.72;99169.68;1660985;84;21021;-75
2021/09/25 08:38:24;;;;;;;5.33;2.02;;;;;;;12.68;75.28;99172.45;1707872;82;21040;-73
2021/09/25 08:40:50;;;;;;;8.75;1.90;;;;;;;12.73;75.49;99179.70;1740761;82;21092;-75
2021/09/25 08:43:18;;;;;;;6.17;2.10;;;;;;;12.78;75.63;99189.97;1718517;81;21088;-72
2021/09/25 08:45:51;;;;;;;17.73;2.12;;;;;;;12.83;75.41;99186.17;1700228;82;21012;-75
2021/09/25 08:48:48;;;;;;;3.92;1.50;;;;;;;12.85;74.75;99184.44;1700864;82;21085;-77
2021/09/25 08:51:15;;;;;;;6.42;2.20;;;;;;;12.87;74.95;99187.11;1655800;85;21850;-77
2021/09/25 08:53:42;;;;;;;10.70;3.02;;;;;;;12.93;75.02;99194.59;1688851;82;21002;-76
2021/09/25 08:56:09;;;;;;;7.60;2.10;;;;;;;12.96;74.81;99188.95;1641280;87;21105;-73
2021/09/25 08:58:35;;;;;;;7.25;1.62;;;;;;;13.01;74.13;99199.80;1655310;84;21010;-75
2021/09/25 09:01:04;;;;;;;6.95;2.30;;;;;;;13.03;73.36;99196.11;1713593;82;21021;-75
2021/09/25 09:03:37;;;;;;;7.25;2.20;;;;;;;13.02;73.15;99204.16;1698838;82;21067;-72
2021/09/25 09:06:21;;;;;;;7.05;2.02;;;;;;;13.03;73.66;99206.58;1714107;82;21036;-76
2021/09/25 09:08:56;;;;;;;13.18;2.25;;;;;;;13.07;73.37;99207.30;1680588;83;20969;-77
2021/09/25 09:11:25;;;;;;;8.55;1.57;;;;;;;13.09;73.07;99206.36;1661156;85;21060;-77
2021/09/25 09:14:04;;;;;;;6.00;1.90;;;;;;;13.10;72.91;99210.75;1695350;83;21120;-75
2021/09/25 09:16:42;;;;;;;10.60;2.30;;;;;;;13.11;72.64;99209.59;1712718;82;21005;-72
2021/09/25 09:19:09;;;;;;;4.65;1.95;;;;;;;13.10;72.71;99207.39;1683447;82;21032;-75
2021/09/25 09:25:53;;;;;;;11.50;3.10;;;;;;;13.14;73.22;99194.50;1626758;88;20956;-74
2021/09/25 09:32:05;;;;;;;9.25;3.20;;;;;;;13.32;73.68;99195.66;1634081;85;21151;-74
2021/09/25 09:34:37;;;;;;;5.95;2.00;;;;;;;13.38;73.32;99194.83;1646446;85;21279;-73
2021/09/25 09:37:21;;;;;;;5.30;2.25;;;;;;;13.40;73.26;99196.67;1646930;85;21595;-74
2021/09/25 09:40:17;;;;;;;8.05;2.45;;;;;;;13.37;72.50;99191.25;1650080;86;21642;-73
2021/09/25 09:42:49;;;;;;;12.58;2.77;;;;;;;13.30;71.98;99192.42;1625694;86;21578;-74
2021/09/25 09:45:26;;;;;;;7.42;2.27;;;;;;;13.24;72.71;99195.98;1675565;82;21687;-76
2021/09/25 09:47:58;;;;;;;8.30;1.98;;;;;;;13.21;72.58;99191.16;1689541;83;21074;-77
2021/09/25 09:50:36;;;;;;;5.72;2.58;;;;;;;13.18;72.65;99192.42;1714194;83;21073;-73
2021/09/25 09:53:14;;;;;;;7.37;3.08;;;;;;;13.17;72.82;99188.05;1689548;83;21543;-75
2021/09/25 09:55:46;;;;;;;6.67;2.40;;;;;;;13.17;73.22;99185.28;1690609;84;21049;-78
2021/09/25 10:02:11;;;;;;;6.67;2.15;;;;;;;13.21;73.09;99188.95;1643796;86;21064;-72
2021/09/25 10:07:18;;;;;;;6.47;2.67;;;;;;;13.24;72.65;99183.55;1662979;85;21178;-73
2021/09/25 10:09:48;;;;;;;4.47;1.87;;;;;;;13.25;72.63;99174.67;1683945;84;21036;-71
2021/09/25 10:12:20;;;;;;;9.98;2.15;;;;;;;13.27;72.17;99174.55;1700289;83;21177;-75
2021/09/25 10:14:47;;;;;;;7.75;1.90;;;;;;;13.30;71.98;99173.62;1693633;83;21533;-79
2021/09/25 10:17:18;;;;;;;11.12;2.45;;;;;;;13.32;71.49;99167.99;1692667;84;21009;-79
2021/09/25 10:19:44;;;;;;;7.95;2.70;;;;;;;13.42;71.89;99176.95;1657979;86;21032;-81
2021/09/25 10:22:23;;;;;;;15.08;5.72;;;;;;;13.55;71.95;99170.28;1667003;85;21005;-79
2021/09/25 10:25:06;;;;;;;7.55;2.27;;;;;;;13.71;71.64;99176.48;1724127;83;21035;-76
2021/09/25 10:27:37;;;;;;;4.22;1.72;;;;;;;13.87;71.49;99174.58;1697340;83;21036;-79
2021/09/25 10:30:07;;;;;;;6.53;1.98;;;;;;;14.04;71.36;99164.36;1691321;84;21134;-82
2021/09/25 10:32:43;;;;;;;3.95;1.45;;;;;;;14.17;70.50;99173.45;1678614;85;21033;-79
2021/09/25 10:35:17;;;;;;;5.85;1.50;;;;;;;14.26;69.26;99177.45;1682974;84;21060;-75
2021/09/25 10:37:51;;;;;;;9.28;2.00;;;;;;;14.29;67.69;99171.77;1697232;83;21107;-79
2021/09/25 10:40:26;;;;;;;5.78;1.77;;;;;;;14.31;67.25;99173.61;1644413;86;21101;-78
2021/09/25 10:43:00;;;;;;;5.20;1.50;;;;;;;14.33;66.60;99174.08;1644855;87;21589;-78
2021/09/25 10:45:36;;;;;;;7.22;1.80;;;;;;;14.35;66.76;99164.23;1677552;85;20970;-78
2021/09/25 10:48:17;;;;;;;5.65;1.70;;;;;;;14.39;66.97;99156.59;1676379;85;21006;-81
2021/09/25 10:51:06;;;;;;;6.50;2.00;;;;;;;14.52;66.84;99164.27;1678107;85;21024;-81
2021/09/25 10:53:37;;;;;;;9.55;2.50;;;;;;;14.70;66.12;99163.34;1677358;85;21068;-79
2021/09/25 10:56:21;;;;;;;10.53;2.20;;;;;;;14.93;66.30;99156.61;1677112;85;21025;-76
2021/09/25 10:59:06;;;;;;;5.28;1.62;;;;;;;15.14;64.84;99158.88;1679906;84;21572;-77
2021/09/25 11:01:43;;;;;;;7.53;2.25;;;;;;;15.20;63.65;99163.78;1650729;85;21015;-79
2021/09/25 11:04:20;;;;;;;16.35;5.28;;;;;;;15.22;63.50;99162.03;1652468;85;21051;-83
2021/09/25 11:06:58;;;;;;;5.97;1.87;;;;;;;15.21;63.71;99171.53;1648193;85;20971;-80
2021/09/25 11:09:42;;;;;;;5.53;1.62;;;;;;;15.19;63.14;99168.31;1612270;87;21095;-81
2021/09/25 11:12:20;;;;;;;8.33;2.37;;;;;;;15.11;63.28;99169.31;1674768;85;21546;-77
2021/09/25 11:14:52;;;;;;;12.82;2.27;;;;;;;15.04;64.06;99170.75;1678280;85;21014;-74
2021/09/25 11:17:36;;;;;;;15.58;2.80;;;;;;;14.93;63.81;99171.05;1683581;84;21490;-79
2021/09/25 11:20:09;;;;;;;6.72;1.87;;;;;;;14.82;64.62;99167.42;1703797;84;21033;-82
2021/09/25 11:26:09;;;;;;;10.32;2.72;;;;;;;14.71;65.42;99164.37;1691246;84;21088;-74
2021/09/25 11:28:35;;;;;;;15.68;3.40;;;;;;;14.73;65.71;99177.87;1653403;85;21129;-70
2021/09/25 11:31:07;;;;;;;11.30;2.35;;;;;;;14.75;65.23;99179.71;1703044;83;22209;-71
2021/09/25 11:33:38;;;;;;;11.25;2.10;;;;;;;14.79;65.53;99183.97;1691163;83;21583;-71
2021/09/25 11:36:10;;;;;;;13.55;2.77;;;;;;;14.81;64.93;99181.66;1669306;82;21223;-73
2021/09/25 11:38:48;;;;;;;9.78;2.37;;;;;;;14.79;65.19;99176.44;1678372;82;21016;-77
2021/09/25 11:41:16;;;;;;;11.38;3.72;;;;;;;14.75;64.83;99174.17;1687518;82;21577;-78
2021/09/25 11:44:02;;;;;;;9.35;3.08;;;;;;;14.73;64.79;99177.30;1682792;82;21099;-77
2021/09/25 11:46:28;;;;;;;;;;;;;;;14.69;64.89;99175.00;1652567;85;21249;-74
2021/09/25 11:48:59;;;;;;;9.10;3.35;;;;;;;14.64;65.04;99184.19;1656361;86;20458;-76
2021/09/25 11:51:33;;;;;;;11.05;2.67;;;;;;;14.57;64.83;99185.59;1665831;85;21065;-76
2021/09/25 11:54:10;;;;;;;17.98;3.40;;;;;;;14.51;64.35;99185.63;1666905;85;21064;-75
2021/09/25 11:56:40;;;;;;;14.28;4.47;;;;;;;14.46;64.35;99190.86;1633225;86;21822;-75
2021/09/25 11:59:08;;;;;;;15.68;3.98;;;;;;;14.42;64.75;99183.59;1655950;86;21012;-75
2021/09/25 12:01:35;;;;;;;12.78;3.27;;;;;;;14.40;65.53;99189.48;1656318;86;21004;-77
2021/09/25 12:04:02;;;;;;;13.58;3.42;;;;;;;14.40;66.17;99185.33;1656273;86;21164;-77
2021/09/25 12:06:29;;;;;;;12.90;3.27;;;;;;;14.41;65.79;99186.96;1656347;86;21079;-76